createdAt,value
2019-04-16T00:01:22.744Z,18.80
2019-04-16T00:03:56.446Z,18.25
2019-04-16T00:06:27.419Z,18.48
2019-04-16T00:09:07.705Z,19.25
2019-04-16T00:11:50.607Z,17.73
2019-04-16T00:14:21.565Z,18.10
2019-04-16T00:16:50.914Z,18.73
2019-04-16T00:19:20.223Z,17.67
2019-04-16T00:22:02.958Z,18.12
2019-04-16T00:24:33.948Z,19.92
2019-04-16T00:27:03.451Z,18.15
2019-04-16T00:29:33.706Z,19.82
2019-04-16T00:32:07.831Z,19.65
2019-04-16T00:34:35.834Z,18.42
2019-04-16T00:37:05.453Z,19.98
2019-04-16T00:39:34.873Z,19.62
2019-04-16T00:42:04.336Z,21.52
2019-04-16T00:44:33.740Z,20.80
2019-04-16T00:47:03.086Z,21.02
2019-04-16T00:49:32.379Z,20.02
2019-04-16T00:52:05.863Z,20.70
2019-04-16T00:54:33.904Z,21.07
2019-04-16T00:57:03.211Z,22.02
2019-04-16T00:59:33.671Z,20.88
2019-04-16T01:02:03.269Z,22.17
2019-04-16T01:04:32.581Z,20.52
2019-04-16T01:07:01.940Z,21.27
2019-04-16T01:09:32.939Z,20.85
2019-04-16T01:14:30.929Z,21.27
2019-04-16T01:17:03.894Z,20.15
2019-04-16T01:19:31.402Z,21.57
2019-04-16T01:22:00.736Z,20.27
2019-04-16T01:24:30.071Z,19.40
2019-04-16T01:26:59.506Z,19.67
2019-04-16T01:29:33.628Z,19.12
2019-04-16T01:32:04.436Z,19.85
2019-04-16T01:34:38.440Z,20.12
2019-04-16T01:37:12.123Z,20.48
2019-04-16T01:39:47.420Z,20.15
2019-04-16T01:42:16.148Z,19.32
2019-04-16T01:44:45.467Z,19.65
2019-04-16T01:47:14.900Z,19.62
2019-04-16T01:49:44.273Z,19.17
2019-04-16T01:52:13.628Z,21.62
2019-04-16T01:54:43.481Z,21.15
2019-04-16T01:59:42.376Z,18.42
2019-04-16T02:02:14.587Z,18.12
2019-04-16T02:04:42.786Z,18.65
2019-04-16T02:07:12.109Z,17.20
2019-04-16T02:09:41.485Z,17.42
2019-04-16T02:12:13.421Z,17.25
2019-04-16T02:14:41.879Z,18.12
2019-04-16T02:17:11.306Z,17.35
2019-04-16T02:19:40.615Z,19.57
2019-04-16T02:22:12.637Z,19.50
2019-04-16T02:24:40.946Z,19.98
2019-04-16T02:27:10.269Z,21.82
2019-04-16T02:29:39.604Z,21.02
2019-04-16T02:32:08.948Z,22.22
2019-04-16T02:34:38.332Z,20.50
2019-04-16T02:37:07.659Z,21.82
2019-04-16T02:39:47.643Z,22.48
2019-04-16T02:42:07.994Z,22.00
2019-04-16T02:44:37.396Z,21.50
2019-04-16T02:47:08.028Z,21.80
2019-04-16T02:49:41.218Z,21.37
2019-04-16T02:52:40.938Z,22.48
2019-04-16T02:55:17.900Z,20.30
2019-04-16T02:58:04.895Z,20.90
2019-04-16T03:00:36.185Z,20.95
2019-04-16T03:03:08.277Z,21.17
2019-04-16T03:05:39.400Z,20.95
2019-04-16T03:08:08.791Z,21.33
2019-04-16T03:10:41.766Z,21.07
2019-04-16T03:13:10.097Z,20.70
2019-04-16T03:15:41.047Z,21.20
2019-04-16T03:18:15.008Z,20.37
2019-04-16T03:20:44.756Z,20.95
2019-04-16T03:23:14.089Z,21.57
2019-04-16T03:25:45.174Z,21.23
2019-04-16T03:28:14.672Z,21.62
2019-04-16T03:30:43.971Z,20.75
2019-04-16T03:33:15.137Z,20.50
2019-04-16T03:35:44.450Z,21.00
2019-04-16T03:38:13.861Z,22.67
2019-04-16T03:40:43.284Z,20.72
2019-04-16T03:43:12.624Z,21.55
2019-04-16T03:45:41.952Z,22.00
2019-04-16T03:48:11.298Z,21.95
2019-04-16T03:50:40.607Z,21.77
2019-04-16T03:53:09.946Z,22.85
2019-04-16T03:55:39.240Z,22.93
2019-04-16T03:58:08.564Z,23.32
2019-04-16T04:00:43.675Z,22.82
2019-04-16T04:03:08.886Z,22.27
2019-04-16T04:05:38.221Z,23.35
2019-04-16T04:08:07.563Z,21.27
2019-04-16T04:10:37.769Z,22.52
2019-04-16T04:13:07.299Z,22.95
2019-04-16T04:15:36.587Z,23.18
2019-04-16T04:18:07.979Z,24.80
2019-04-16T04:20:36.932Z,22.02
2019-04-16T04:23:06.477Z,23.10
2019-04-16T04:25:37.012Z,22.93
2019-04-16T04:28:06.703Z,22.37
2019-04-16T04:30:36.141Z,23.00
2019-04-16T04:33:08.962Z,23.32
2019-04-16T04:35:36.698Z,23.00
2019-04-16T04:38:06.020Z,23.90
2019-04-16T04:40:44.247Z,23.98
2019-04-16T04:43:06.364Z,23.67
2019-04-16T04:45:37.675Z,21.85
2019-04-16T04:48:06.704Z,21.60
2019-04-16T04:50:36.085Z,21.87
2019-04-16T04:53:05.613Z,23.02
2019-04-16T04:55:34.950Z,22.40
2019-04-16T04:58:04.278Z,22.80
2019-04-16T05:00:33.612Z,22.65
2019-04-16T05:03:02.941Z,22.75
2019-04-16T05:05:33.884Z,22.10
2019-04-16T05:08:04.284Z,23.20
2019-04-16T05:10:36.628Z,23.57
2019-04-16T05:13:04.683Z,22.32
2019-04-16T05:15:33.998Z,21.82
2019-04-16T05:18:05.833Z,22.27
2019-04-16T05:20:34.356Z,22.93
2019-04-16T05:23:03.774Z,22.48
2019-04-16T05:25:34.359Z,24.18
2019-04-16T05:28:03.870Z,22.15
2019-04-16T05:30:33.197Z,22.77
2019-04-16T05:33:05.565Z,22.75
2019-04-16T05:35:33.546Z,21.90
2019-04-16T05:38:02.919Z,22.98
2019-04-16T05:40:35.117Z,22.85
2019-04-16T05:43:03.324Z,22.17
2019-04-16T05:45:34.503Z,21.75
2019-04-16T05:48:03.672Z,22.87
2019-04-16T05:50:33.000Z,22.27
2019-04-16T05:53:02.331Z,24.30
2019-04-16T05:55:36.129Z,22.02
2019-04-16T05:58:05.453Z,21.57
2019-04-16T06:00:38.605Z,21.45
2019-04-16T06:03:07.447Z,19.65
2019-04-16T06:05:36.763Z,19.20
2019-04-16T06:08:10.734Z,19.57
2019-04-16T06:10:41.294Z,20.90
2019-04-16T06:13:13.194Z,20.60
2019-04-16T06:16:00.768Z,20.70
2019-04-16T06:18:43.559Z,22.45
2019-04-16T06:21:30.398Z,22.07
2019-04-16T06:24:10.431Z,22.17
2019-04-16T06:26:53.412Z,23.20
2019-04-16T06:29:29.077Z,23.80
2019-04-16T06:31:59.852Z,23.62
2019-04-16T06:34:47.119Z,23.47
2019-04-16T06:37:21.551Z,24.27
2019-04-16T06:40:00.626Z,22.73
2019-04-16T06:42:29.413Z,22.95
2019-04-16T06:45:01.671Z,24.00
2019-04-16T06:47:45.097Z,22.87
2019-04-16T06:50:31.190Z,23.10
2019-04-16T06:53:13.085Z,21.85
2019-04-16T06:55:44.061Z,22.85
2019-04-16T06:58:20.477Z,22.13
2019-04-16T07:01:05.829Z,23.25
2019-04-16T07:03:33.411Z,23.52
2019-04-16T07:06:04.825Z,23.00
2019-04-16T07:08:51.958Z,23.47
2019-04-16T07:11:24.943Z,23.27
2019-04-16T07:13:54.313Z,22.67
2019-04-16T07:16:27.949Z,23.80
2019-04-16T07:18:54.680Z,22.62
2019-04-16T07:21:23.984Z,23.35
2019-04-16T07:23:56.863Z,23.75
2019-04-16T07:26:24.391Z,24.10
2019-04-16T07:28:58.775Z,21.93
2019-04-16T07:31:34.706Z,24.60
2019-04-16T07:34:06.429Z,24.63
2019-04-16T07:36:56.630Z,22.93
2019-04-16T07:39:29.239Z,26.48
2019-04-16T07:42:21.366Z,22.35
2019-04-16T07:45:11.401Z,22.10
2019-04-16T07:47:53.635Z,23.40
2019-04-16T07:50:24.673Z,23.98
2019-04-16T07:52:55.622Z,23.47
2019-04-16T07:55:32.653Z,24.32
2019-04-16T07:58:01.952Z,23.67
2019-04-16T08:00:31.440Z,23.67
2019-04-16T08:03:00.741Z,23.73
2019-04-16T08:05:30.077Z,22.98
2019-04-16T08:08:00.693Z,22.77
2019-04-16T08:10:30.138Z,24.15
2019-04-16T08:13:01.851Z,25.40
2019-04-16T08:15:31.600Z,23.80
2019-04-16T08:18:00.921Z,22.93
2019-04-16T08:20:30.227Z,22.67
2019-04-16T08:23:01.217Z,22.20
2019-04-16T08:25:34.073Z,22.93
2019-04-16T08:28:02.224Z,22.62
2019-04-16T08:30:35.456Z,23.10
2019-04-16T08:33:02.618Z,23.95
2019-04-16T08:35:31.993Z,22.60
2019-04-16T08:38:01.344Z,22.77
2019-04-16T08:40:30.659Z,21.87
2019-04-16T08:42:59.995Z,22.27
2019-04-16T08:45:29.315Z,22.85
2019-04-16T08:47:58.653Z,22.65
2019-04-16T08:50:27.996Z,22.45
2019-04-16T08:52:57.331Z,22.22
2019-04-16T08:55:26.668Z,22.58
2019-04-16T08:57:55.995Z,21.68
2019-04-16T09:00:25.313Z,22.07
2019-04-16T09:02:57.577Z,21.60
2019-04-16T09:05:25.702Z,21.77
2019-04-16T09:08:10.896Z,24.05
2019-04-16T09:10:30.911Z,20.72
2019-04-16T09:13:04.967Z,23.55
2019-04-16T09:15:36.445Z,21.37
2019-04-16T09:18:23.904Z,22.75
2019-04-16T09:20:53.374Z,22.15
2019-04-16T09:23:25.903Z,21.52
2019-04-16T09:26:12.927Z,22.70
2019-04-16T09:28:37.009Z,21.55
2019-04-16T09:31:08.251Z,21.12
2019-04-16T09:33:51.227Z,20.62
2019-04-16T09:36:31.184Z,18.35
2019-04-16T09:39:02.172Z,18.50
2019-04-16T09:41:34.760Z,19.48
2019-04-16T09:44:04.940Z,19.17
2019-04-16T09:46:50.569Z,17.65
2019-04-16T09:49:06.181Z,18.42
2019-04-16T09:51:35.956Z,18.20
2019-04-16T09:54:05.543Z,18.07
2019-04-16T09:56:34.874Z,17.07
2019-04-16T09:59:06.384Z,17.75
2019-04-16T10:01:39.982Z,16.95
2019-04-16T10:04:11.116Z,16.15
2019-04-16T10:06:40.487Z,15.05
2019-04-16T10:09:09.965Z,16.23
2019-04-16T10:11:39.284Z,18.15
2019-04-16T10:14:08.689Z,17.33
2019-04-16T10:16:39.072Z,16.30
2019-04-16T10:19:09.234Z,16.30
2019-04-16T10:21:38.733Z,16.90
2019-04-16T10:24:09.683Z,15.10
2019-04-16T10:26:39.028Z,15.55
2019-04-16T10:29:10.023Z,15.38
2019-04-16T10:31:39.439Z,15.28
2019-04-16T10:34:08.946Z,14.65
2019-04-16T10:36:38.350Z,14.15
2019-04-16T10:39:12.567Z,14.63
2019-04-16T10:41:59.068Z,15.05
2019-04-16T10:44:30.033Z,14.00
2019-04-16T10:47:19.398Z,14.93
2019-04-16T10:49:49.130Z,14.33
2019-04-16T10:52:26.230Z,15.25
2019-04-16T10:54:57.206Z,14.30
2019-04-16T10:57:28.248Z,14.60
2019-04-16T11:00:05.277Z,15.08
2019-04-16T11:02:45.789Z,14.03
2019-04-16T11:05:22.582Z,12.73
2019-04-16T11:07:53.735Z,13.30
2019-04-16T11:10:23.047Z,12.80
2019-04-16T11:15:22.803Z,12.93
2019-04-16T11:17:52.231Z,11.70
2019-04-16T11:20:21.651Z,11.12
2019-04-16T11:22:51.066Z,11.63
2019-04-16T11:27:49.178Z,11.63
2019-04-16T11:33:04.552Z,11.38
2019-04-16T11:35:34.439Z,12.23
2019-04-16T11:38:04.164Z,8.73
2019-04-16T11:40:33.639Z,9.83
2019-04-16T11:45:31.579Z,10.80
2019-04-16T11:48:00.939Z,10.20
2019-04-16T11:52:59.129Z,7.10
2019-04-16T11:55:28.512Z,7.30
2019-04-16T11:57:57.830Z,6.03
2019-04-16T12:00:34.701Z,6.10
2019-04-16T12:03:11.662Z,5.40
2019-04-16T12:05:51.379Z,4.87
2019-04-16T12:08:38.857Z,4.87
2019-04-16T12:11:21.770Z,5.08
2019-04-16T12:13:52.755Z,5.75
2019-04-16T12:16:26.245Z,5.62
2019-04-16T12:19:15.376Z,5.50
2019-04-16T12:21:49.353Z,6.45
2019-04-16T12:24:29.340Z,5.80
2019-04-16T12:27:16.614Z,6.00
2019-04-16T12:29:50.781Z,6.55
2019-04-16T12:32:26.855Z,5.25
2019-04-16T12:34:59.891Z,5.65
2019-04-16T12:37:47.043Z,9.53
2019-04-16T12:40:19.580Z,10.98
2019-04-16T12:42:56.846Z,10.00
2019-04-16T12:45:45.329Z,11.05
2019-04-16T12:48:28.722Z,10.70
2019-04-16T12:51:15.771Z,11.60
2019-04-16T12:53:56.004Z,11.20
2019-04-16T12:56:29.963Z,12.30
2019-04-16T12:59:04.006Z,13.25
2019-04-16T13:01:36.470Z,11.53
2019-04-16T13:04:10.592Z,13.00
2019-04-16T13:06:41.583Z,13.62
2019-04-16T13:09:28.443Z,13.98
2019-04-16T13:12:08.170Z,14.45
2019-04-16T13:15:00.735Z,12.93
2019-04-16T13:17:26.562Z,14.23
2019-04-16T13:20:09.755Z,14.43
2019-04-16T13:22:58.929Z,14.90
2019-04-16T13:25:36.113Z,15.43
2019-04-16T13:28:06.433Z,15.10
2019-04-16T13:30:35.731Z,15.50
2019-04-16T13:33:05.072Z,16.82
2019-04-16T13:35:34.413Z,15.77
2019-04-16T13:38:08.139Z,17.40
2019-04-16T13:40:34.816Z,14.78
2019-04-16T13:43:05.580Z,15.55
2019-04-16T13:45:36.691Z,16.25
2019-04-16T13:48:16.416Z,16.15
2019-04-16T13:50:46.549Z,15.38
2019-04-16T13:53:28.658Z,9.45
2019-04-16T13:55:56.165Z,7.55
2019-04-16T13:58:31.372Z,6.70
2019-04-16T14:01:02.438Z,6.42
2019-04-16T14:03:31.762Z,6.47
2019-04-16T14:06:01.179Z,7.40
2019-04-16T14:08:30.472Z,9.23
2019-04-16T14:10:59.813Z,7.87
2019-04-16T14:13:29.145Z,8.60
2019-04-16T14:15:58.822Z,9.25
2019-04-16T14:18:29.574Z,12.43
2019-04-16T14:20:59.608Z,9.73
2019-04-16T14:23:29.052Z,10.77
2019-04-16T14:25:58.571Z,10.78
2019-04-16T14:28:28.132Z,10.60
2019-04-16T14:30:57.448Z,9.78
2019-04-16T14:33:28.550Z,11.33
2019-04-16T14:35:57.973Z,11.57
2019-04-16T14:38:29.062Z,10.45
2019-04-16T14:40:58.468Z,10.90
2019-04-16T14:43:30.151Z,10.10
2019-04-16T14:46:00.708Z,10.60
2019-04-16T14:48:30.090Z,10.82
2019-04-16T14:50:59.439Z,10.00
2019-04-16T14:53:30.395Z,9.93
2019-04-16T14:56:01.772Z,9.88
2019-04-16T14:58:33.353Z,11.88
2019-04-16T15:01:07.111Z,10.53
2019-04-16T15:03:50.257Z,12.03
2019-04-16T15:06:21.236Z,13.70
2019-04-16T15:09:01.137Z,11.65
2019-04-16T15:11:48.763Z,11.65
2019-04-16T15:14:19.723Z,11.70
2019-04-16T15:17:05.833Z,12.82
2019-04-16T15:19:42.840Z,11.75
2019-04-16T15:22:32.002Z,12.88
2019-04-16T15:25:06.067Z,12.75
2019-04-16T15:27:49.715Z,12.35
2019-04-16T15:30:37.595Z,11.75
2019-04-16T15:33:11.792Z,13.20
2019-04-16T15:35:46.815Z,15.75
2019-04-16T15:38:18.720Z,15.90
2019-04-16T15:40:49.676Z,14.30
2019-04-16T15:43:38.552Z,15.30
2019-04-16T15:46:25.056Z,14.45
2019-04-16T15:49:00.719Z,14.40
2019-04-16T15:51:50.799Z,14.73
2019-04-16T15:54:20.732Z,14.40
2019-04-16T15:56:51.705Z,15.65
2019-04-16T15:59:38.039Z,15.40
2019-04-16T16:02:25.349Z,15.80
2019-04-16T16:04:59.098Z,16.93
2019-04-16T16:07:28.891Z,18.15
2019-04-16T16:10:05.895Z,19.40
2019-04-16T16:12:35.210Z,19.77
2019-04-16T16:15:08.772Z,18.40
2019-04-16T16:17:38.044Z,18.95
2019-04-16T16:20:10.283Z,18.42
2019-04-16T16:22:39.717Z,20.05
2019-04-16T16:25:09.388Z,19.17
2019-04-16T16:27:41.755Z,20.88
2019-04-16T16:30:14.376Z,21.62
2019-04-16T16:32:40.902Z,19.95
2019-04-16T16:35:10.387Z,21.25
2019-04-16T16:37:39.768Z,22.42
2019-04-16T16:40:12.018Z,18.75
2019-04-16T16:42:40.445Z,19.95
2019-04-16T16:45:10.089Z,19.45
2019-04-16T16:47:40.263Z,19.45
2019-04-16T16:50:11.691Z,21.02
2019-04-16T16:52:51.609Z,19.62
2019-04-16T16:55:31.648Z,19.80
2019-04-16T16:58:08.933Z,20.97
2019-04-16T17:00:47.045Z,20.85
2019-04-16T17:03:18.027Z,21.37
2019-04-16T17:05:47.892Z,20.88
2019-04-16T17:08:17.222Z,21.53
2019-04-16T17:10:46.569Z,72.25
2019-04-16T17:13:20.804Z,23.55
2019-04-16T17:15:46.941Z,22.05
2019-04-16T17:18:16.271Z,22.95
2019-04-16T17:20:45.595Z,21.17
2019-04-16T17:23:16.722Z,22.27
2019-04-16T17:25:46.013Z,21.23
2019-04-16T17:28:15.498Z,50.33
2019-04-16T17:30:44.908Z,22.52
2019-04-16T17:33:14.268Z,22.05
2019-04-16T17:35:46.230Z,20.08
2019-04-16T17:38:14.782Z,20.50
2019-04-16T17:40:58.653Z,20.50
2019-04-16T17:43:32.954Z,18.92
2019-04-16T17:46:20.217Z,18.67
2019-04-16T17:48:54.195Z,18.95
2019-04-16T17:51:28.430Z,17.87
2019-04-16T17:53:59.413Z,20.62
2019-04-16T17:56:46.694Z,19.00
2019-04-16T17:59:17.731Z,17.92
2019-04-16T18:02:07.037Z,16.12
2019-04-16T18:04:44.921Z,13.93
2019-04-16T18:07:33.208Z,12.07
2019-04-16T18:10:04.453Z,12.43
2019-04-16T18:12:41.994Z,11.83
2019-04-16T18:15:31.536Z,13.68
2019-04-16T18:18:15.526Z,10.85
2019-04-16T18:20:58.727Z,10.55
2019-04-16T18:23:27.882Z,11.05
2019-04-16T18:26:15.073Z,11.95
2019-04-16T18:28:46.079Z,10.08
2019-04-16T18:31:29.010Z,10.18
2019-04-16T18:34:16.218Z,12.37
2019-04-16T18:36:59.252Z,23.02
2019-04-16T18:39:37.623Z,18.40
2019-04-16T18:42:11.460Z,12.30
2019-04-16T18:44:45.221Z,10.93
2019-04-16T18:47:19.184Z,9.83
2019-04-16T18:49:50.135Z,10.53
2019-04-16T18:52:19.587Z,32.50
2019-04-16T18:54:49.416Z,13.62
2019-04-16T18:57:19.523Z,10.82
2019-04-16T18:59:48.904Z,11.18
2019-04-16T19:02:18.372Z,11.25
2019-04-16T19:04:50.824Z,12.53
2019-04-16T19:07:18.993Z,10.40
2019-04-16T19:09:48.396Z,12.30
2019-04-16T19:12:18.143Z,12.13
2019-04-16T19:14:47.521Z,11.53
2019-04-16T19:17:17.567Z,10.53
2019-04-16T19:19:47.106Z,21.05
2019-04-16T19:22:16.423Z,18.77
2019-04-16T19:24:45.762Z,13.88
2019-04-16T19:27:15.249Z,14.68
2019-04-16T19:29:45.438Z,13.55
2019-04-16T19:32:15.477Z,13.30
2019-04-16T19:34:44.819Z,13.62
2019-04-16T19:37:14.120Z,14.80
2019-04-16T19:39:43.792Z,13.40
2019-04-16T19:42:14.963Z,13.28
2019-04-16T19:44:44.271Z,12.73
2019-04-16T19:47:13.607Z,14.20
2019-04-16T19:49:43.290Z,13.25
2019-04-16T19:52:14.336Z,13.85
2019-04-16T19:54:43.936Z,14.23
2019-04-16T19:57:13.360Z,14.33
2019-04-16T19:59:46.406Z,13.93
2019-04-16T20:02:14.178Z,14.20
2019-04-16T20:04:44.419Z,13.90
2019-04-16T20:07:14.494Z,13.38
2019-04-16T20:09:43.873Z,13.98
2019-04-16T20:12:13.184Z,14.40
2019-04-16T20:14:42.582Z,15.13
2019-04-16T20:17:12.989Z,14.10
2019-04-16T20:19:57.750Z,15.05
2019-04-16T20:22:30.164Z,14.40
2019-04-16T20:24:59.852Z,13.85
2019-04-16T20:27:29.182Z,13.32
2019-04-16T20:29:59.592Z,14.47
2019-04-16T20:32:30.870Z,15.18
2019-04-16T20:35:00.468Z,14.87
2019-04-16T20:37:29.850Z,13.13
2019-04-16T20:39:59.608Z,13.13
2019-04-16T20:42:29.083Z,12.97
2019-04-16T20:44:58.434Z,13.35
2019-04-16T20:47:27.780Z,15.30
2019-04-16T20:49:57.286Z,14.65
2019-04-16T20:52:26.635Z,12.75
2019-04-16T20:54:56.030Z,15.40
2019-04-16T20:57:26.420Z,14.03
2019-04-16T20:59:57.112Z,13.28
2019-04-16T21:02:28.157Z,14.03
2019-04-16T21:04:58.195Z,13.30
2019-04-16T21:07:28.502Z,12.95
2019-04-16T21:10:02.518Z,13.50
2019-04-16T21:12:28.869Z,13.65
2019-04-16T21:14:58.205Z,13.58
2019-04-16T21:17:28.649Z,13.68
2019-04-16T21:19:57.957Z,12.80
2019-04-16T21:22:27.885Z,12.15
2019-04-16T21:24:58.267Z,13.28
2019-04-16T21:27:27.720Z,13.83
2019-04-16T21:29:57.091Z,12.15
2019-04-16T21:32:37.320Z,12.88
2019-04-16T21:35:14.975Z,11.95
2019-04-16T21:38:02.299Z,11.83
2019-04-16T21:40:32.087Z,12.15
2019-04-16T21:43:06.312Z,13.22
2019-04-16T21:45:32.537Z,13.85
2019-04-16T21:48:02.862Z,13.62
2019-04-16T21:50:32.332Z,13.65
2019-04-16T21:53:01.646Z,12.63
2019-04-16T21:55:32.827Z,12.43
2019-04-16T21:58:02.001Z,11.28
2019-04-16T22:00:33.255Z,10.88
2019-04-16T22:03:09.426Z,11.33
2019-04-16T22:05:36.964Z,12.18
2019-04-16T22:08:06.302Z,12.33
2019-04-16T22:10:35.787Z,11.65
2019-04-16T22:13:05.261Z,12.45
2019-04-16T22:15:34.565Z,12.53
2019-04-16T22:18:07.575Z,13.28
2019-04-16T22:20:35.642Z,12.40
2019-04-16T22:25:34.877Z,12.07
2019-04-16T22:28:04.260Z,12.05
2019-04-16T22:30:33.595Z,11.08
2019-04-16T22:33:06.459Z,12.05
2019-04-16T22:35:34.148Z,11.35
2019-04-16T22:38:03.554Z,10.95
2019-04-16T22:40:34.563Z,12.18
2019-04-16T22:43:07.807Z,12.43
2019-04-16T22:45:41.145Z,11.90
2019-04-16T22:48:10.463Z,11.80
2019-04-16T22:50:39.796Z,12.93
2019-04-16T22:53:09.096Z,14.03
2019-04-16T22:55:42.358Z,13.15
2019-04-16T22:58:24.076Z,13.40
2019-04-16T23:00:55.276Z,13.60
2019-04-16T23:03:24.680Z,13.08
2019-04-16T23:05:53.995Z,13.68
2019-04-16T23:08:23.321Z,13.40
2019-04-16T23:10:52.664Z,14.23
2019-04-16T23:13:21.966Z,13.55
2019-04-16T23:15:51.297Z,14.93
2019-04-16T23:18:20.796Z,14.00
2019-04-16T23:20:50.096Z,13.43
2019-04-16T23:23:19.453Z,12.68
2019-04-16T23:25:48.821Z,12.98
2019-04-16T23:28:18.139Z,12.60
2019-04-16T23:30:47.883Z,13.95
2019-04-16T23:33:18.503Z,14.28
2019-04-16T23:35:47.831Z,13.58
2019-04-16T23:38:17.148Z,13.08
2019-04-16T23:40:46.465Z,13.75
2019-04-16T23:43:18.813Z,13.65
2019-04-16T23:46:06.936Z,13.75
2019-04-16T23:48:38.139Z,15.23
2019-04-16T23:51:15.172Z,14.40
2019-04-16T23:54:01.258Z,13.70
2019-04-16T23:56:35.008Z,14.65
2019-04-16T23:59:09.057Z,14.68
